Time;durP1;ratioP1;P1;durP2;ratioP2;P2;SDS_P1;SDS_P2;PMS_P1;PMS_P2;Temp;Humidity;BMP_temperature;BMP_pressure;BME280_temperature;BME280_humidity;BME280_pressure;Samples;Min_cycle;Max_cycle;Signal;HPM_P1;HPM_P2
2022/09/19 00:01:10;;;;;;;3.90;2.80;;;9.70;99.90;;;;;;5073422;28;20456;-78
2022/09/19 00:03:37;;;;;;;3.90;2.90;;;9.80;99.90;;;;;;5075275;28;20429;-78
2022/09/19 00:06:04;;;;;;;3.93;2.40;;;9.80;99.90;;;;;;5077232;28;20490;-77
2022/09/19 00:08:31;;;;;;;4.37;2.53;;;9.80;99.90;;;;;;5077464;28;20514;-76
2022/09/19 00:11:03;;;;;;;5.93;2.33;;;9.80;99.90;;;;;;5076821;28;20484;-78
2022/09/19 00:13:30;;;;;;;8.87;3.97;;;9.70;99.90;;;;;;5077005;28;20977;-78
2022/09/19 00:15:57;;;;;;;4.30;2.80;;;9.80;99.90;;;;;;5076723;28;20537;-77
2022/09/19 00:18:24;;;;;;;6.03;3.00;;;9.80;99.90;;;;;;5076733;28;20452;-77
2022/09/19 00:20:51;;;;;;;3.30;2.77;;;9.80;99.90;;;;;;5076285;28;20445;-77
2022/09/19 00:26:06;;;;;;;2.87;2.43;;;9.80;99.90;;;;;;5076662;28;20490;-77
2022/09/19 00:28:33;;;;;;;6.37;3.27;;;9.80;99.90;;;;;;5076372;28;20865;-77
2022/09/19 00:31:01;;;;;;;4.13;3.17;;;9.70;99.90;;;;;;5076121;28;20896;-76
2022/09/19 00:33:30;;;;;;;6.20;3.00;;;9.80;99.90;;;;;;5076283;28;20445;-77
2022/09/19 00:35:58;;;;;;;4.10;3.70;;;9.80;99.90;;;;;;5076896;28;20475;-77
2022/09/19 00:38:27;;;;;;;3.57;3.30;;;9.80;99.90;;;;;;5078587;28;20463;-77
2022/09/19 00:40:54;;;;;;;6.30;4.20;;;9.80;99.90;;;;;;5077229;28;20441;-77
2022/09/19 00:43:25;;;;;;;7.33;4.03;;;9.90;99.90;;;;;;5076949;28;20445;-77
2022/09/19 00:45:52;;;;;;;4.47;3.00;;;10.00;99.90;;;;;;5076405;28;20812;-76
2022/09/19 00:48:22;;;;;;;5.13;3.70;;;9.70;99.90;;;;;;5075893;28;20440;-77
2022/09/19 00:50:54;;;;;;;4.87;3.67;;;9.70;99.90;;;;;;5076422;28;20451;-77
2022/09/19 00:53:24;;;;;;;6.33;3.87;;;9.70;99.90;;;;;;5076663;28;20524;-77
2022/09/19 00:55:54;;;;;;;5.50;3.83;;;9.90;99.90;;;;;;5076545;28;20457;-77
2022/09/19 00:58:28;;;;;;;6.50;5.53;;;9.60;99.90;;;;;;5076086;28;20454;-78
2022/09/19 01:00:55;;;;;;;4.53;3.30;;;9.80;99.90;;;;;;5075913;28;20428;-77
2022/09/19 01:03:24;;;;;;;6.40;4.63;;;9.80;99.90;;;;;;5076020;28;20502;-78
2022/09/19 01:06:01;;;;;;;4.27;3.50;;;9.90;99.90;;;;;;5075759;28;20480;-77
2022/09/19 01:08:45;;;;;;;6.83;4.20;;;9.80;99.90;;;;;;5076007;28;20942;-78
2022/09/19 01:11:36;;;;;;;5.20;4.00;;;9.80;99.90;;;;;;5077748;28;20464;-77
2022/09/19 01:14:14;;;;;;;4.23;3.80;;;9.60;99.90;;;;;;5075835;28;20437;-77
2022/09/19 01:16:46;;;;;;;5.47;4.30;;;9.40;99.90;;;;;;5075005;28;21040;-77
2022/09/19 01:19:30;;;;;;;5.10;4.60;;;9.40;99.90;;;;;;5078854;28;20847;-77
2022/09/19 01:22:05;;;;;;;5.00;4.60;;;9.30;99.90;;;;;;5076747;28;20491;-77
2022/09/19 01:24:54;;;;;;;7.27;5.30;;;9.40;99.90;;;;;;5075665;28;20480;-77
2022/09/19 01:27:48;;;;;;;4.97;4.03;;;9.50;99.90;;;;;;5075070;28;20839;-77
2022/09/19 01:30:17;;;;;;;8.27;3.97;;;9.40;99.90;;;;;;5064201;28;20452;-77
2022/09/19 01:32:51;;;;;;;6.20;4.60;;;9.50;99.90;;;;;;5074733;28;20554;-77
2022/09/19 01:35:23;;;;;;;7.10;4.70;;;9.40;99.90;;;;;;5075607;28;20433;-77
2022/09/19 01:37:53;;;;;;;6.17;4.90;;;9.60;99.90;;;;;;5075230;28;20465;-77
2022/09/19 01:40:22;;;;;;;4.77;4.30;;;9.50;99.90;;;;;;5076355;28;20504;-77
2022/09/19 01:42:54;;;;;;;6.67;4.60;;;9.60;99.90;;;;;;5076310;28;20494;-77
2022/09/19 01:45:24;;;;;;;6.00;5.40;;;9.50;99.90;;;;;;5076887;28;20977;-77
2022/09/19 01:48:07;;;;;;;7.17;6.20;;;9.60;99.90;;;;;;5076878;28;20485;-77
2022/09/19 01:51:02;;;;;;;5.27;4.67;;;9.70;99.90;;;;;;5074807;28;20441;-77
2022/09/19 01:53:45;;;;;;;5.30;4.40;;;9.60;99.90;;;;;;5074613;28;20429;-77
2022/09/19 01:56:22;;;;;;;4.40;3.97;;;9.40;99.90;;;;;;5094943;22;20979;-79
2022/09/19 01:58:54;;;;;;;4.83;4.17;;;9.60;99.90;;;;;;5061152;28;20444;-78
2022/09/19 02:01:30;;;;;;;5.83;4.27;;;9.60;99.90;;;;;;5065832;28;20494;-77
2022/09/19 02:04:02;;;;;;;6.07;4.70;;;9.50;99.90;;;;;;5066480;28;20425;-79
2022/09/19 02:06:42;;;;;;;5.37;3.93;;;9.70;99.90;;;;;;5062025;28;20487;-79
2022/09/19 02:09:16;;;;;;;4.70;3.87;;;9.70;99.90;;;;;;5059016;28;20422;-79
2022/09/19 02:11:43;;;;;;;4.40;4.00;;;9.70;99.90;;;;;;5058624;28;20473;-80
2022/09/19 02:14:16;;;;;;;8.63;5.00;;;9.70;99.90;;;;;;5059922;28;20449;-78
2022/09/19 02:16:51;;;;;;;7.10;4.77;;;9.60;99.90;;;;;;5058541;28;20485;-79
2022/09/19 02:19:21;;;;;;;8.70;4.10;;;9.70;99.90;;;;;;5061271;28;20451;-77
2022/09/19 02:21:54;;;;;;;7.70;5.17;;;9.80;99.90;;;;;;5064538;28;20525;-78
2022/09/19 02:24:27;;;;;;;11.70;4.97;;;9.80;99.90;;;;;;5064051;28;20897;-78
2022/09/19 02:26:55;;;;;;;6.57;3.77;;;9.80;99.90;;;;;;5062519;28;20477;-77
2022/09/19 02:29:30;;;;;;;7.37;3.83;;;9.80;99.90;;;;;;5062998;28;20446;-78
2022/09/19 02:31:59;;;;;;;5.43;4.00;;;9.80;99.90;;;;;;5063457;28;20522;-78
2022/09/19 02:34:26;;;;;;;5.87;3.53;;;9.90;99.90;;;;;;5062121;28;20441;-78
2022/09/19 02:37:01;;;;;;;5.80;3.80;;;9.80;99.90;;;;;;5063911;28;20863;-78
2022/09/19 02:39:30;;;;;;;3.37;3.03;;;9.80;99.90;;;;;;5064650;28;20426;-77
2022/09/19 02:42:02;;;;;;;4.93;3.40;;;9.80;99.90;;;;;;5064650;28;20423;-77
2022/09/19 02:44:36;;;;;;;5.23;3.30;;;9.80;99.90;;;;;;5069036;28;20430;-78
2022/09/19 02:47:12;;;;;;;7.30;4.23;;;9.80;99.90;;;;;;5069903;28;20468;-78
2022/09/19 02:49:46;;;;;;;5.13;4.07;;;9.90;99.90;;;;;;5068651;28;20847;-78
2022/09/19 02:52:19;;;;;;;4.37;3.93;;;9.90;99.90;;;;;;5069256;28;20473;-79
2022/09/19 02:54:50;;;;;;;5.83;4.27;;;9.80;99.90;;;;;;5067502;28;20436;-78
2022/09/19 02:57:20;;;;;;;8.30;4.50;;;9.90;99.90;;;;;;5065583;28;20500;-78
2022/09/19 02:59:50;;;;;;;8.30;4.67;;;9.90;99.90;;;;;;5067190;28;20456;-78
2022/09/19 03:02:22;;;;;;;6.30;3.63;;;9.90;99.90;;;;;;5057462;28;20434;-80
2022/09/19 03:04:53;;;;;;;5.93;4.43;;;9.80;99.90;;;;;;5058085;28;20441;-81
2022/09/19 03:07:27;;;;;;;6.53;4.40;;;9.80;99.90;;;;;;5057048;28;20504;-79
2022/09/19 03:10:01;;;;;;;7.47;4.50;;;9.90;99.90;;;;;;5056089;28;20446;-79
2022/09/19 03:12:34;;;;;;;5.20;4.23;;;9.90;99.90;;;;;;5056038;28;20527;-79
2022/09/19 03:15:01;;;;;;;7.30;3.77;;;9.90;99.90;;;;;;5057200;28;20532;-79
2022/09/19 03:17:32;;;;;;;5.43;3.50;;;9.80;99.90;;;;;;5061068;28;20496;-77
2022/09/19 03:19:59;;;;;;;7.03;4.00;;;9.90;99.90;;;;;;5075050;28;20430;-79
2022/09/19 03:22:26;;;;;;;5.73;5.17;;;9.80;99.90;;;;;;5073382;28;20444;-78
2022/09/19 03:24:53;;;;;;;5.20;4.70;;;9.90;99.90;;;;;;5063793;28;20856;-79
2022/09/19 03:27:20;;;;;;;5.80;5.30;;;9.80;99.90;;;;;;5056086;28;20469;-79
2022/09/19 03:29:46;;;;;;;5.90;5.30;;;9.90;99.90;;;;;;5056746;28;20965;-80
2022/09/19 03:32:13;;;;;;;8.33;5.87;;;9.90;99.90;;;;;;5056506;28;20489;-80
2022/09/19 03:34:41;;;;;;;7.33;5.80;;;9.90;99.90;;;;;;5062538;28;20503;-78
2022/09/19 03:37:08;;;;;;;8.90;6.13;;;9.90;99.90;;;;;;5067095;28;20461;-79
2022/09/19 03:39:35;;;;;;;7.90;5.00;;;9.90;99.90;;;;;;5070495;28;20881;-78
2022/09/19 03:42:02;;;;;;;6.80;5.40;;;9.80;99.90;;;;;;5071629;28;20448;-78
2022/09/19 03:44:28;;;;;;;10.57;8.47;;;9.80;99.90;;;;;;5067363;28;20441;-78
2022/09/19 03:46:55;;;;;;;9.70;6.13;;;9.80;99.90;;;;;;5065844;28;20466;-79
2022/09/19 03:49:22;;;;;;;12.50;8.93;;;9.80;99.90;;;;;;5067462;28;20445;-77
2022/09/19 03:51:50;;;;;;;6.27;5.40;;;9.90;99.90;;;;;;5063714;28;20488;-78
2022/09/19 03:54:17;;;;;;;5.83;5.20;;;9.90;99.90;;;;;;5066345;28;20446;-79
2022/09/19 03:56:44;;;;;;;9.77;5.50;;;9.90;99.90;;;;;;5069982;28;20480;-80
2022/09/19 03:59:11;;;;;;;13.87;8.13;;;10.00;99.90;;;;;;5059763;28;20445;-80
2022/09/19 04:01:37;;;;;;;7.23;5.63;;;10.00;99.90;;;;;;5059879;28;20552;-80
2022/09/19 04:04:04;;;;;;;9.50;7.00;;;10.10;99.90;;;;;;5059040;28;20970;-80
2022/09/19 04:06:31;;;;;;;7.23;5.23;;;10.10;99.90;;;;;;5059453;28;20472;-80
2022/09/19 04:09:00;;;;;;;12.43;7.47;;;10.20;99.90;;;;;;5059796;28;20944;-79
2022/09/19 04:11:27;;;;;;;7.17;6.43;;;10.10;99.90;;;;;;5059801;28;20449;-80
2022/09/19 04:13:55;;;;;;;9.07;6.80;;;10.00;99.90;;;;;;5059190;28;20903;-80
2022/09/19 04:16:24;;;;;;;11.97;9.40;;;10.00;99.90;;;;;;5059287;28;20465;-79
2022/09/19 04:18:52;;;;;;;11.80;8.07;;;10.20;99.90;;;;;;5062921;28;20446;-78
2022/09/19 04:21:18;;;;;;;22.03;15.60;;;10.20;99.90;;;;;;5070310;28;20538;-78
2022/09/19 04:23:46;;;;;;;41.73;25.00;;;10.20;99.90;;;;;;5066022;28;20442;-79
2022/09/19 04:26:14;;;;;;;10.60;8.10;;;10.30;99.90;;;;;;5059434;28;20507;-78
2022/09/19 04:28:42;;;;;;;20.57;15.03;;;10.20;99.90;;;;;;5059046;28;20461;-79
2022/09/19 04:31:12;;;;;;;12.53;6.67;;;10.30;99.90;;;;;;5059856;28;20469;-79
2022/09/19 04:33:39;;;;;;;10.17;8.00;;;10.10;99.90;;;;;;5060744;28;20473;-79
2022/09/19 04:36:06;;;;;;;10.57;7.53;;;10.00;99.90;;;;;;5058301;28;20435;-80
2022/09/19 04:38:33;;;;;;;10.50;8.00;;;10.00;99.90;;;;;;5058760;28;20203;-80
2022/09/19 04:41:01;;;;;;;8.20;7.50;;;9.90;99.90;;;;;;5059949;28;20446;-80
2022/09/19 04:43:31;;;;;;;9.77;7.60;;;10.00;99.90;;;;;;5059065;28;20967;-80
2022/09/19 04:45:59;;;;;;;11.33;8.00;;;10.00;99.90;;;;;;5064046;28;20438;-78
2022/09/19 04:48:26;;;;;;;12.43;8.57;;;10.00;99.90;;;;;;5068388;28;20445;-79
2022/09/19 04:50:53;;;;;;;15.90;11.00;;;10.00;99.90;;;;;;5067221;28;20441;-78
2022/09/19 04:53:23;;;;;;;10.87;6.83;;;10.10;99.90;;;;;;5065551;28;20478;-78
2022/09/19 04:55:50;;;;;;;9.70;7.60;;;10.10;99.90;;;;;;5061406;28;20553;-79
2022/09/19 04:58:17;;;;;;;8.60;5.93;;;10.20;99.90;;;;;;5058704;28;20987;-80
2022/09/19 05:00:50;;;;;;;10.53;7.10;;;10.10;99.90;;;;;;5059045;28;20450;-80
2022/09/19 05:03:18;;;;;;;15.20;10.50;;;10.20;99.90;;;;;;5058259;28;20799;-79
2022/09/19 05:05:50;;;;;;;27.60;18.60;;;10.20;99.90;;;;;;5058065;28;20445;-79
2022/09/19 05:08:19;;;;;;;39.97;27.07;;;10.30;99.90;;;;;;5057592;28;20565;-79
2022/09/19 05:10:46;;;;;;;6.83;5.37;;;10.40;99.90;;;;;;5058109;28;20456;-79
2022/09/19 05:13:14;;;;;;;6.20;5.33;;;10.30;99.90;;;;;;5057868;28;20535;-79
2022/09/19 05:15:41;;;;;;;7.13;5.27;;;10.20;99.90;;;;;;5057830;28;20512;-80
2022/09/19 05:18:10;;;;;;;6.67;5.80;;;10.20;99.90;;;;;;5058606;28;20473;-79
2022/09/19 05:20:37;;;;;;;7.30;5.80;;;10.20;99.90;;;;;;5063731;28;20454;-78
2022/09/19 05:23:04;;;;;;;6.23;5.50;;;10.30;99.90;;;;;;5069570;28;20446;-77
2022/09/19 05:25:35;;;;;;;6.37;5.77;;;10.20;99.90;;;;;;5070065;28;20506;-78
2022/09/19 05:28:06;;;;;;;6.80;6.20;;;10.20;99.90;;;;;;5064919;28;20911;-79
2022/09/19 05:30:33;;;;;;;10.73;5.70;;;10.20;99.90;;;;;;5062195;28;20441;-79
2022/09/19 05:33:02;;;;;;;7.70;6.40;;;10.30;99.90;;;;;;5060868;28;20503;-78
2022/09/19 05:35:30;;;;;;;8.60;6.40;;;10.20;99.90;;;;;;5060670;28;20449;-78
2022/09/19 05:37:58;;;;;;;7.50;6.70;;;10.30;99.90;;;;;;5059127;28;20466;-80
2022/09/19 05:40:25;;;;;;;6.37;5.70;;;10.40;99.90;;;;;;5058243;28;20529;-78
2022/09/19 05:42:53;;;;;;;12.53;7.20;;;10.50;99.90;;;;;;5057143;28;20450;-80
2022/09/19 05:45:21;;;;;;;9.97;6.67;;;10.40;99.90;;;;;;5058470;28;20450;-78
2022/09/19 05:47:49;;;;;;;13.60;6.23;;;10.50;99.90;;;;;;5057814;28;20552;-80
2022/09/19 05:50:16;;;;;;;7.20;6.20;;;10.50;99.90;;;;;;5057251;28;20866;-79
2022/09/19 05:55:30;;;;;;;7.23;5.80;;;10.60;99.90;;;;;;5056938;28;20463;-80
2022/09/19 05:57:58;;;;;;;8.10;5.53;;;10.60;99.90;;;;;;5056982;28;20527;-80
2022/09/19 06:00:27;;;;;;;7.80;6.67;;;10.70;99.90;;;;;;5065092;28;20453;-76
2022/09/19 06:02:54;;;;;;;7.87;7.07;;;10.70;99.90;;;;;;5071314;28;20491;-78
2022/09/19 06:05:22;;;;;;;7.30;6.60;;;10.70;99.90;;;;;;5062488;28;20446;-80
2022/09/19 06:07:51;;;;;;;13.17;6.40;;;10.80;99.90;;;;;;5056955;28;20469;-80
2022/09/19 06:10:18;;;;;;;8.60;7.63;;;10.80;99.90;;;;;;5056471;28;20454;-80
2022/09/19 06:12:44;;;;;;;8.70;7.90;;;10.80;99.90;;;;;;5056297;28;20510;-79
2022/09/19 06:15:11;;;;;;;8.07;6.10;;;10.90;99.90;;;;;;5056192;28;20449;-78
2022/09/19 06:17:38;;;;;;;7.23;6.37;;;10.90;99.90;;;;;;5057407;28;20466;-80
2022/09/19 06:20:06;;;;;;;8.37;6.53;;;10.90;99.90;;;;;;5056910;28;20507;-80
2022/09/19 06:22:33;;;;;;;6.70;6.10;;;10.90;99.90;;;;;;5057167;28;20441;-80
2022/09/19 06:25:01;;;;;;;7.17;5.70;;;11.00;99.90;;;;;;5056184;28;20449;-81
2022/09/19 06:27:28;;;;;;;10.17;7.10;;;11.00;99.90;;;;;;5057018;28;20536;-81
2022/09/19 06:29:55;;;;;;;7.03;6.20;;;11.10;99.90;;;;;;5056308;28;20492;-80
2022/09/19 06:32:23;;;;;;;6.43;5.70;;;11.10;99.90;;;;;;5056980;28;20458;-79
2022/09/19 06:34:50;;;;;;;11.80;7.50;;;11.10;99.90;;;;;;5056408;28;20453;-80
2022/09/19 06:37:16;;;;;;;7.77;7.07;;;11.10;99.90;;;;;;5058004;28;20470;-81
2022/09/19 06:39:43;;;;;;;6.63;6.03;;;11.20;99.90;;;;;;5058386;28;20457;-80
2022/09/19 06:42:11;;;;;;;8.53;5.90;;;11.20;99.90;;;;;;5059087;28;20449;-78
2022/09/19 06:44:38;;;;;;;9.10;5.77;;;11.00;99.90;;;;;;5061301;28;20446;-79
2022/09/19 06:47:05;;;;;;;10.60;4.70;;;11.10;99.90;;;;;;5060766;28;20472;-80
2022/09/19 06:49:32;;;;;;;5.30;4.80;;;11.20;99.90;;;;;;5062969;28;20456;-79
2022/09/19 06:51:59;;;;;;;7.80;4.10;;;11.10;99.90;;;;;;5067210;28;20472;-79
2022/09/19 06:54:26;;;;;;;6.23;4.90;;;11.00;99.90;;;;;;5064604;28;20509;-80
2022/09/19 06:56:52;;;;;;;5.07;4.57;;;11.10;99.90;;;;;;5063269;28;20469;-78
2022/09/19 06:59:21;;;;;;;5.53;4.77;;;11.30;99.90;;;;;;5066784;28;20445;-78
2022/09/19 07:01:48;;;;;;;4.57;4.17;;;11.30;99.90;;;;;;5062480;28;20470;-79
2022/09/19 07:04:15;;;;;;;11.03;4.43;;;11.30;99.90;;;;;;5068202;28;20456;-78
2022/09/19 07:06:42;;;;;;;4.10;3.80;;;11.40;99.90;;;;;;5061476;28;20448;-79
2022/09/19 07:09:09;;;;;;;7.43;3.90;;;11.40;99.90;;;;;;5057007;28;20449;-78
2022/09/19 07:11:37;;;;;;;4.10;3.80;;;11.40;99.90;;;;;;5055798;28;20450;-79
2022/09/19 07:14:04;;;;;;;4.43;3.90;;;11.40;99.90;;;;;;5056054;28;20455;-79
2022/09/19 07:16:32;;;;;;;4.23;3.70;;;11.40;99.90;;;;;;5067785;28;20453;-78
2022/09/19 07:18:59;;;;;;;4.00;3.70;;;11.50;99.90;;;;;;5071820;28;20475;-78
2022/09/19 07:21:26;;;;;;;4.60;3.47;;;11.50;99.90;;;;;;5071828;28;20446;-77
2022/09/19 07:23:54;;;;;;;6.20;3.43;;;11.50;99.90;;;;;;5067297;28;20442;-77
2022/09/19 07:26:22;;;;;;;5.03;3.60;;;11.50;99.90;;;;;;5065134;28;20472;-78
2022/09/19 07:28:48;;;;;;;4.90;3.03;;;11.70;99.90;;;;;;5060920;28;20488;-78
2022/09/19 07:31:15;;;;;;;3.80;3.03;;;11.60;99.90;;;;;;5056715;28;20449;-80
2022/09/19 07:33:43;;;;;;;4.33;3.90;;;11.60;99.90;;;;;;5056840;28;20473;-80
2022/09/19 07:36:11;;;;;;;3.27;3.07;;;11.80;99.90;;;;;;5055979;28;20452;-80
2022/09/19 07:38:38;;;;;;;3.40;3.20;;;11.80;99.90;;;;;;5060783;28;20968;-78
2022/09/19 07:41:05;;;;;;;3.07;2.87;;;11.80;99.90;;;;;;5067596;28;20446;-78
2022/09/19 07:43:31;;;;;;;7.60;3.30;;;11.90;99.90;;;;;;5062943;28;20440;-80
2022/09/19 07:45:58;;;;;;;4.43;3.50;;;11.90;99.90;;;;;;5056545;28;20548;-80
2022/09/19 07:48:25;;;;;;;3.10;2.90;;;12.00;99.90;;;;;;5060229;28;20442;-80
2022/09/19 07:50:53;;;;;;;3.07;2.77;;;11.90;99.90;;;;;;5061376;28;20450;-78
2022/09/19 07:53:22;;;;;;;4.40;3.07;;;12.00;99.90;;;;;;5061607;28;20999;-79
2022/09/19 07:55:51;;;;;;;3.43;2.70;;;12.10;99.90;;;;;;5060733;28;20484;-80
2022/09/19 07:58:19;;;;;;;4.30;3.10;;;12.20;99.90;;;;;;5082399;22;20502;-76
2022/09/19 08:00:46;;;;;;;3.77;2.93;;;12.20;99.90;;;;;;5073290;28;20491;-77
2022/09/19 08:03:15;;;;;;;4.37;2.60;;;12.20;99.90;;;;;;5073340;28;20415;-77
2022/09/19 08:05:43;;;;;;;3.20;2.90;;;12.20;99.90;;;;;;5073616;28;20453;-78
2022/09/19 08:08:14;;;;;;;3.40;3.20;;;12.30;99.90;;;;;;5073751;28;20435;-77
2022/09/19 08:10:42;;;;;;;4.60;3.53;;;12.30;99.90;;;;;;5075280;28;20429;-79
2022/09/19 08:13:11;;;;;;;3.60;3.30;;;12.40;99.90;;;;;;5075335;28;20473;-79
2022/09/19 08:15:39;;;;;;;3.23;2.77;;;12.40;99.90;;;;;;5074527;28;20448;-79
2022/09/19 08:18:15;;;;;;;6.33;2.70;;;12.50;99.90;;;;;;5074770;28;20472;-80
2022/09/19 08:20:43;;;;;;;4.20;2.33;;;12.40;99.90;;;;;;5075405;28;20432;-79
2022/09/19 08:23:13;;;;;;;3.07;2.83;;;12.50;99.90;;;;;;5074640;28;20795;-78
2022/09/19 08:25:46;;;;;;;4.60;2.80;;;12.50;99.90;;;;;;5077675;28;20433;-79
2022/09/19 08:28:13;;;;;;;2.40;2.20;;;12.60;99.90;;;;;;5078965;28;20505;-79
2022/09/19 08:30:42;;;;;;;2.93;2.70;;;12.70;99.90;;;;;;5079418;28;20483;-79
2022/09/19 08:33:10;;;;;;;3.17;2.97;;;12.80;99.90;;;;;;5079382;28;20448;-79
2022/09/19 08:35:37;;;;;;;4.47;1.97;;;13.00;99.90;;;;;;5079319;28;20445;-78
2022/09/19 08:38:06;;;;;;;2.00;1.80;;;13.00;99.90;;;;;;5079174;28;20496;-80
2022/09/19 08:40:43;;;;;;;3.97;2.70;;;12.90;99.90;;;;;;5079202;28;20451;-79
2022/09/19 08:43:14;;;;;;;2.90;2.30;;;13.00;99.90;;;;;;5079167;28;20429;-82
2022/09/19 08:46:05;;;;;;;3.40;1.87;;;13.10;99.90;;;;;;5079833;28;20904;-81
2022/09/19 08:48:44;;;;;;;2.67;2.33;;;13.30;99.90;;;;;;5079118;28;20468;-80
2022/09/19 08:51:16;;;;;;;4.77;2.43;;;13.40;99.90;;;;;;5085883;28;20831;-79
2022/09/19 08:53:47;;;;;;;5.93;2.13;;;13.40;99.90;;;;;;5083803;28;21059;-78
2022/09/19 08:56:18;;;;;;;3.20;2.47;;;13.60;99.90;;;;;;5080310;28;20428;-78
2022/09/19 08:58:49;;;;;;;2.17;1.97;;;14.10;99.90;;;;;;5077913;28;20457;-79
2022/09/19 09:01:21;;;;;;;1.73;1.63;;;13.40;99.90;;;;;;5077541;28;20429;-80
2022/09/19 09:04:07;;;;;;;1.57;1.47;;;13.40;99.90;;;;;;5077926;28;20444;-80
2022/09/19 09:06:42;;;;;;;2.50;1.63;;;13.30;99.90;;;;;;5078281;28;20469;-78
2022/09/19 09:09:19;;;;;;;2.67;1.57;;;13.40;99.90;;;;;;5077356;28;20440;-78
2022/09/19 09:11:59;;;;;;;6.10;2.10;;;13.40;99.90;;;;;;5077884;28;20451;-78
2022/09/19 09:14:46;;;;;;;2.20;2.00;;;13.50;99.90;;;;;;5076658;28;20872;-78
2022/09/19 09:17:22;;;;;;;1.90;1.80;;;13.50;99.90;;;;;;5076404;28;20468;-78
2022/09/19 09:20:15;;;;;;;4.57;1.70;;;13.20;99.90;;;;;;5076494;28;20429;-78
2022/09/19 09:22:46;;;;;;;2.10;1.80;;;13.50;99.90;;;;;;5076360;28;20483;-78
2022/09/19 09:25:17;;;;;;;8.13;1.90;;;13.70;99.90;;;;;;5076040;28;20425;-78
2022/09/19 09:27:57;;;;;;;4.40;2.03;;;13.70;99.90;;;;;;5075783;28;20460;-78
2022/09/19 09:30:24;;;;;;;3.73;1.80;;;13.70;99.90;;;;;;5075869;28;20767;-78
2022/09/19 09:32:56;;;;;;;1.20;1.10;;;13.80;99.90;;;;;;5075836;28;20448;-78
2022/09/19 09:35:31;;;;;;;2.00;1.90;;;13.90;99.90;;;;;;5075401;28;20982;-78
2022/09/19 09:38:04;;;;;;;2.07;1.80;;;14.00;99.90;;;;;;5075922;28;20982;-78
2022/09/19 09:43:49;;;;;;;6.50;4.70;;;14.30;99.90;;;;;;5076163;28;20408;-79
2022/09/19 09:46:22;;;;;;;2.83;1.63;;;14.50;99.90;;;;;;5075917;28;20479;-79
2022/09/19 09:48:53;;;;;;;3.70;3.40;;;14.40;99.90;;;;;;5075808;28;20841;-78
2022/09/19 09:51:32;;;;;;;2.10;1.90;;;14.50;99.90;;;;;;5075797;28;20429;-79
2022/09/19 09:56:14;;;;;;;1.87;1.43;;;14.60;99.90;;;;;;5075167;28;20518;-78
2022/09/19 09:57:05;;;;;;;1.67;1.50;;;14.70;99.90;;;;;;5074934;28;20465;-78
2022/09/19 10:05:26;;;;;;;2.63;1.27;;;14.90;99.90;;;;;;5076263;28;20918;-79
2022/09/19 10:08:03;;;;;;;1.60;1.50;;;14.30;99.90;;;;;;5076027;28;20468;-79
2022/09/19 10:10:33;;;;;;;1.77;1.63;;;14.20;99.90;;;;;;5076290;28;20440;-79
2022/09/19 10:13:07;;;;;;;4.10;1.60;;;14.00;99.90;;;;;;5076051;28;20457;-79
2022/09/19 10:15:39;;;;;;;1.33;1.23;;;13.60;99.90;;;;;;5076232;28;20468;-78
2022/09/19 10:18:09;;;;;;;2.20;1.77;;;13.10;99.90;;;;;;5076005;28;20508;-78
2022/09/19 10:20:39;;;;;;;3.17;1.63;;;12.80;99.90;;;;;;5075738;28;20448;-79
2022/09/19 10:23:13;;;;;;;1.37;1.27;;;12.50;99.90;;;;;;5077473;28;20795;-79
2022/09/19 10:25:40;;;;;;;2.83;1.13;;;12.10;99.90;;;;;;5077290;28;20831;-80
2022/09/19 10:28:17;;;;;;;1.00;0.90;;;11.70;99.90;;;;;;5077227;28;20539;-79
2022/09/19 10:30:57;;;;;;;1.20;1.10;;;11.30;99.90;;;;;;5081961;28;20432;-79
2022/09/19 10:33:38;;;;;;;1.33;0.90;;;11.00;99.90;;;;;;5079888;28;20437;-78
2022/09/19 10:36:08;;;;;;;2.47;2.27;;;10.90;99.90;;;;;;5081811;28;20490;-79
2022/09/19 10:38:47;;;;;;;1.83;1.57;;;10.90;99.90;;;;;;5082656;28;20476;-78
2022/09/19 10:41:15;;;;;;;1.40;1.30;;;10.90;99.90;;;;;;5085954;28;20458;-79
2022/09/19 10:43:46;;;;;;;1.60;0.93;;;10.70;99.90;;;;;;5084016;28;20445;-78
2022/09/19 10:46:35;;;;;;;1.67;1.10;;;10.30;99.90;;;;;;5085302;28;20852;-80
2022/09/19 10:49:06;;;;;;;1.83;1.37;;;10.40;99.90;;;;;;5080414;28;20449;-80
2022/09/19 10:51:35;;;;;;;1.00;0.90;;;10.40;99.90;;;;;;5078003;28;20513;-78
2022/09/19 10:54:11;;;;;;;1.33;1.23;;;10.40;99.90;;;;;;5077335;28;20480;-78
2022/09/19 10:56:40;;;;;;;2.00;1.50;;;10.30;99.90;;;;;;5076018;28;20472;-79
2022/09/19 10:59:26;;;;;;;1.97;1.77;;;10.30;99.90;;;;;;5074952;28;20395;-79
2022/09/19 11:02:28;;;;;;;1.43;1.33;;;10.40;99.90;;;;;;5077062;28;20433;-80
2022/09/19 11:05:02;;;;;;;1.30;1.20;;;10.50;99.90;;;;;;5073145;28;20471;-79
2022/09/19 11:07:33;;;;;;;3.70;1.27;;;10.40;99.90;;;;;;5081689;28;20522;-79
2022/09/19 11:10:04;;;;;;;1.10;1.00;;;10.50;99.90;;;;;;5080703;28;20530;-81
2022/09/19 11:12:31;;;;;;;4.97;1.40;;;10.40;99.90;;;;;;5082459;28;20842;-80
2022/09/19 11:14:59;;;;;;;1.17;1.17;;;10.40;99.90;;;;;;5082792;28;20480;-80
2022/09/19 11:17:51;;;;;;;2.80;1.60;;;10.20;99.90;;;;;;5080165;28;20472;-80
2022/09/19 11:20:30;;;;;;;2.80;1.80;;;10.50;99.90;;;;;;5077563;28;20463;-80
2022/09/19 11:23:28;;;;;;;1.80;1.50;;;10.60;99.90;;;;;;5076418;28;20441;-81
2022/09/19 11:26:04;;;;;;;1.87;1.77;;;10.70;99.90;;;;;;5075804;28;20433;-81
2022/09/19 11:28:44;;;;;;;2.10;2.00;;;10.70;99.90;;;;;;5075939;28;20487;-81
2022/09/19 11:31:21;;;;;;;2.10;1.83;;;10.90;99.90;;;;;;5075411;28;20450;-80
2022/09/19 11:33:56;;;;;;;5.57;2.20;;;11.10;99.90;;;;;;5076471;28;20439;-80
2022/09/19 11:36:33;;;;;;;4.03;2.90;;;11.30;99.90;;;;;;5077138;28;20421;-80
2022/09/19 11:39:07;;;;;;;2.37;2.03;;;11.60;99.90;;;;;;5079616;28;20452;-80
2022/09/19 11:41:45;;;;;;;14.87;7.60;;;11.80;99.90;;;;;;5077020;28;20441;-80
2022/09/19 11:44:39;;;;;;;4.07;2.53;;;11.80;99.90;;;;;;5075321;28;20543;-80
2022/09/19 11:47:22;;;;;;;2.40;2.20;;;12.10;99.90;;;;;;5075671;28;20877;-80
2022/09/19 11:50:21;;;;;;;4.07;2.17;;;12.10;99.90;;;;;;5075569;28;20490;-80
2022/09/19 11:53:06;;;;;;;2.03;1.70;;;12.30;99.90;;;;;;5075336;28;20479;-80
2022/09/19 11:55:41;;;;;;;4.63;2.13;;;12.50;99.90;;;;;;5075076;28;20464;-79
2022/09/19 11:58:15;;;;;;;2.70;1.90;;;12.60;99.90;;;;;;5074317;28;20511;-80
2022/09/19 12:00:54;;;;;;;2.50;2.30;;;12.80;99.90;;;;;;5079785;28;20437;-79
2022/09/19 12:03:34;;;;;;;2.30;1.93;;;12.90;99.90;;;;;;5078930;28;20433;-80
2022/09/19 12:06:13;;;;;;;2.10;2.00;;;13.10;99.90;;;;;;5078732;28;20425;-80
2022/09/19 12:09:12;;;;;;;3.00;1.70;;;13.30;99.90;;;;;;5079134;28;20454;-79
2022/09/19 12:11:49;;;;;;;6.00;5.20;;;13.40;99.90;;;;;;5078107;28;20433;-79
2022/09/19 12:14:22;;;;;;;3.93;2.00;;;13.60;99.90;;;;;;5078576;28;20436;-79
2022/09/19 12:16:53;;;;;;;3.40;1.90;;;13.70;99.90;;;;;;5078997;28;20542;-79
2022/09/19 12:19:23;;;;;;;3.57;1.90;;;14.00;99.90;;;;;;5078303;28;20452;-79
2022/09/19 12:21:53;;;;;;;1.20;1.10;;;13.70;99.90;;;;;;5078119;28;20429;-79
2022/09/19 12:27:15;;;;;;;1.10;1.00;;;13.30;99.90;;;;;;5078535;28;20511;-79
2022/09/19 12:29:48;;;;;;;4.20;1.63;;;12.50;99.90;;;;;;5078448;28;20455;-80
2022/09/19 12:32:22;;;;;;;3.23;1.70;;;11.60;99.90;;;;;;5077549;28;20769;-79
2022/09/19 12:34:55;;;;;;;2.50;1.50;;;11.10;99.90;;;;;;5077972;28;20492;-79
2022/09/19 12:37:30;;;;;;;3.50;1.73;;;10.80;99.90;;;;;;5077534;28;20475;-78
2022/09/19 12:40:07;;;;;;;1.60;1.50;;;10.50;99.90;;;;;;5077446;28;20436;-79
2022/09/19 12:42:45;;;;;;;1.97;1.37;;;10.60;99.90;;;;;;5077244;28;20429;-79
2022/09/19 12:45:19;;;;;;;3.03;1.80;;;10.80;99.90;;;;;;5078195;28;20768;-78
2022/09/19 12:48:00;;;;;;;2.73;1.70;;;10.80;99.90;;;;;;5077130;28;20472;-79
2022/09/19 12:50:32;;;;;;;1.60;1.50;;;10.70;99.90;;;;;;5077725;28;20433;-79
2022/09/19 12:53:20;;;;;;;1.30;1.20;;;10.80;99.90;;;;;;5077632;28;20468;-79
2022/09/19 12:56:00;;;;;;;3.30;1.60;;;10.90;99.90;;;;;;5077506;28;20522;-79
2022/09/19 12:58:32;;;;;;;1.63;1.53;;;10.90;99.90;;;;;;5077256;28;20474;-78
2022/09/19 13:01:08;;;;;;;1.80;1.70;;;10.90;99.90;;;;;;5076320;28;20453;-79
2022/09/19 13:03:42;;;;;;;4.57;3.80;;;10.80;99.90;;;;;;5078502;28;20440;-78
2022/09/19 13:06:14;;;;;;;2.20;1.70;;;10.80;99.90;;;;;;5078612;28;20502;-79
2022/09/19 13:08:48;;;;;;;2.83;2.57;;;10.80;99.90;;;;;;5082526;28;20874;-79
2022/09/19 13:11:25;;;;;;;2.97;2.47;;;10.90;99.90;;;;;;5078164;28;20524;-79
2022/09/19 13:13:56;;;;;;;2.60;2.40;;;11.00;99.90;;;;;;5077860;28;20846;-79
2022/09/19 13:16:33;;;;;;;4.80;2.63;;;11.20;99.90;;;;;;5078219;28;20469;-79
2022/09/19 13:24:38;;;;;;;2.40;2.20;;;11.20;99.90;;;;;;5077508;28;20776;-79
2022/09/19 13:27:07;;;;;;;3.17;1.80;;;11.30;99.90;;;;;;5076542;28;20460;-79
2022/09/19 13:29:49;;;;;;;2.97;2.77;;;11.40;99.90;;;;;;5076716;28;20449;-78
2022/09/19 13:32:52;;;;;;;3.10;2.30;;;11.40;99.90;;;;;;5076198;28;20474;-80
2022/09/19 13:35:22;;;;;;;3.40;2.90;;;11.50;99.90;;;;;;5076380;28;20833;-78